createdAt,value
2019-02-19T00:01:45.057Z,71.96
2019-02-19T00:04:10.922Z,71.96
2019-02-19T00:06:36.909Z,72.03
2019-02-19T00:09:04.683Z,72.05
2019-02-19T00:11:30.609Z,72.05
2019-02-19T00:13:56.640Z,72.10
2019-02-19T00:16:22.497Z,72.09
2019-02-19T00:18:48.352Z,72.10
2019-02-19T00:21:14.349Z,72.08
2019-02-19T00:23:40.223Z,72.05
2019-02-19T00:26:15.701Z,72.04
2019-02-19T00:28:41.556Z,72.05
2019-02-19T00:31:07.400Z,72.04
2019-02-19T00:33:33.451Z,72.00
2019-02-19T00:35:59.412Z,71.96
2019-02-19T00:38:25.302Z,71.91
2019-02-19T00:40:51.326Z,71.95
2019-02-19T00:43:19.067Z,71.98
2019-02-19T00:45:44.905Z,72.05
2019-02-19T00:48:10.887Z,71.99
2019-02-19T00:50:36.772Z,72.00
2019-02-19T00:53:02.611Z,71.96
2019-02-19T00:55:28.617Z,71.99
2019-02-19T00:57:56.189Z,71.93
2019-02-19T01:00:22.114Z,71.84
2019-02-19T01:02:48.130Z,71.97
2019-02-19T01:05:14.038Z,72.12
2019-02-19T01:07:39.915Z,72.07
2019-02-19T01:10:06.458Z,72.11
2019-02-19T01:12:32.318Z,72.13
2019-02-19T01:14:58.168Z,72.14
2019-02-19T01:17:24.312Z,72.11
2019-02-19T01:19:50.190Z,72.10
2019-02-19T01:22:16.266Z,72.18
2019-02-19T01:24:42.261Z,72.23
2019-02-19T01:27:08.222Z,72.20
2019-02-19T01:29:34.088Z,72.19
2019-02-19T01:32:00.049Z,72.04
2019-02-19T01:34:25.886Z,72.14
2019-02-19T01:36:51.937Z,72.13
2019-02-19T01:39:17.909Z,72.04
2019-02-19T01:41:43.869Z,72.05
2019-02-19T01:44:09.776Z,72.03
2019-02-19T01:46:35.806Z,72.14
2019-02-19T01:49:01.673Z,72.26
2019-02-19T01:51:27.523Z,72.36
2019-02-19T01:53:53.473Z,72.33
2019-02-19T01:56:19.409Z,72.29
2019-02-19T01:58:45.283Z,72.38
2019-02-19T02:01:11.319Z,72.34
2019-02-19T02:03:37.146Z,72.35
2019-02-19T02:06:03.028Z,72.48
2019-02-19T02:08:29.188Z,72.39
2019-02-19T02:10:55.035Z,72.46
2019-02-19T02:13:20.898Z,72.41
2019-02-19T02:15:46.939Z,72.38
2019-02-19T02:18:12.799Z,72.33
2019-02-19T02:20:38.718Z,72.45
2019-02-19T02:23:04.743Z,72.43
2019-02-19T02:25:30.641Z,72.48
2019-02-19T02:27:56.508Z,72.37
2019-02-19T02:30:22.550Z,72.33
2019-02-19T02:32:48.400Z,72.39
2019-02-19T02:35:14.268Z,72.31
2019-02-19T02:37:40.572Z,72.35
2019-02-19T02:40:06.728Z,72.43
2019-02-19T02:42:32.597Z,72.52
2019-02-19T02:44:58.541Z,72.53
2019-02-19T02:47:24.409Z,72.49
2019-02-19T02:49:50.261Z,72.42
2019-02-19T02:52:16.290Z,72.34
2019-02-19T02:54:42.167Z,72.25
2019-02-19T02:57:07.994Z,72.16
2019-02-19T02:59:34.013Z,72.11
2019-02-19T03:01:59.845Z,72.18
2019-02-19T03:04:25.701Z,72.16
2019-02-19T03:06:53.534Z,72.11
2019-02-19T03:09:19.408Z,72.09
2019-02-19T03:11:45.297Z,72.15
2019-02-19T03:14:11.231Z,72.24
2019-02-19T03:16:37.081Z,72.26
2019-02-19T03:19:03.065Z,72.21
2019-02-19T03:21:29.120Z,72.16
2019-02-19T03:23:54.980Z,72.08
2019-02-19T03:26:20.806Z,72.03
2019-02-19T03:28:46.766Z,71.95
2019-02-19T03:31:12.620Z,71.99
2019-02-19T03:33:38.486Z,72.01
2019-02-19T03:36:04.539Z,71.95
2019-02-19T03:38:30.387Z,71.89
2019-02-19T03:40:56.717Z,71.86
2019-02-19T03:43:22.719Z,71.99
2019-02-19T03:45:48.607Z,72.00
2019-02-19T03:48:14.464Z,71.99
2019-02-19T03:50:40.421Z,71.93
2019-02-19T03:53:06.273Z,71.92
2019-02-19T03:55:32.330Z,71.89
2019-02-19T03:57:58.445Z,71.94
2019-02-19T04:00:24.408Z,72.08
2019-02-19T04:02:50.286Z,72.12
2019-02-19T04:05:16.457Z,72.09
2019-02-19T04:07:42.329Z,72.17
2019-02-19T04:10:08.320Z,72.30
2019-02-19T04:12:34.392Z,72.37
2019-02-19T04:15:00.360Z,72.35
2019-02-19T04:17:26.236Z,72.33
2019-02-19T04:19:52.230Z,72.25
2019-02-19T04:22:18.045Z,72.20
2019-02-19T04:24:43.981Z,72.15
2019-02-19T04:27:09.952Z,72.06
2019-02-19T04:29:35.805Z,71.97
2019-02-19T04:32:01.699Z,71.87
2019-02-19T04:34:27.712Z,71.82
2019-02-19T04:36:53.592Z,71.96
2019-02-19T04:39:19.596Z,72.08
2019-02-19T04:41:45.997Z,72.16
2019-02-19T04:44:11.938Z,72.14
2019-02-19T04:46:37.824Z,72.11
2019-02-19T04:49:03.986Z,72.11
2019-02-19T04:51:29.829Z,72.15
2019-02-19T04:53:55.712Z,72.16
2019-02-19T04:56:21.755Z,72.10
2019-02-19T04:58:47.636Z,72.01
2019-02-19T05:01:13.529Z,71.88
2019-02-19T05:03:39.544Z,71.96
2019-02-19T05:06:05.378Z,72.09
2019-02-19T05:08:31.286Z,72.07
2019-02-19T05:10:57.283Z,71.99
2019-02-19T05:13:23.314Z,71.95
2019-02-19T05:15:49.240Z,71.88
2019-02-19T05:18:15.226Z,71.85
2019-02-19T05:20:41.203Z,71.77
2019-02-19T05:23:07.565Z,71.71
2019-02-19T05:25:33.610Z,71.85
2019-02-19T05:27:59.485Z,72.01
2019-02-19T05:30:25.376Z,72.16
2019-02-19T05:32:51.469Z,72.22
2019-02-19T05:35:17.317Z,72.11
2019-02-19T05:37:43.219Z,72.09
2019-02-19T05:40:09.284Z,72.10
2019-02-19T05:42:35.207Z,72.17
2019-02-19T05:45:01.077Z,72.25
2019-02-19T05:47:27.197Z,72.28
2019-02-19T05:49:53.102Z,72.21
2019-02-19T05:52:18.981Z,72.20
2019-02-19T05:54:45.119Z,72.31
2019-02-19T05:57:11.053Z,72.32
2019-02-19T05:59:36.912Z,72.23
2019-02-19T06:02:02.877Z,72.20
2019-02-19T06:04:28.725Z,72.09
2019-02-19T06:06:54.571Z,72.12
2019-02-19T06:09:20.512Z,72.15
2019-02-19T06:11:46.510Z,72.08
2019-02-19T06:14:12.352Z,72.10
2019-02-19T06:16:38.381Z,72.05
2019-02-19T06:19:04.348Z,72.10
2019-02-19T06:21:30.205Z,72.17
2019-02-19T06:23:56.344Z,72.35
2019-02-19T06:26:22.347Z,72.47
2019-02-19T06:28:48.197Z,72.46
2019-02-19T06:31:14.251Z,72.32
2019-02-19T06:33:40.094Z,72.21
2019-02-19T06:36:05.952Z,72.13
2019-02-19T06:38:31.996Z,72.07
2019-02-19T06:40:58.360Z,72.02
2019-02-19T06:43:24.254Z,72.02
2019-02-19T06:45:50.290Z,71.91
2019-02-19T06:48:16.161Z,71.91
2019-02-19T06:50:42.032Z,72.02
2019-02-19T06:53:08.012Z,72.11
2019-02-19T06:55:33.898Z,72.04
2019-02-19T06:57:59.733Z,71.98
2019-02-19T07:00:25.910Z,72.07
2019-02-19T07:02:59.690Z,72.10
2019-02-19T07:05:25.763Z,72.00
2019-02-19T07:07:51.718Z,72.02
2019-02-19T07:10:17.631Z,71.99
2019-02-19T07:12:43.515Z,71.91
2019-02-19T07:15:09.783Z,71.96
2019-02-19T07:17:35.667Z,71.91
2019-02-19T07:20:01.603Z,71.89
2019-02-19T07:22:27.597Z,71.86
2019-02-19T07:24:53.479Z,71.92
2019-02-19T07:27:19.343Z,71.94
2019-02-19T07:29:45.400Z,71.91
2019-02-19T07:32:11.272Z,71.86
2019-02-19T07:34:37.332Z,71.83
2019-02-19T07:37:03.316Z,71.74
2019-02-19T07:39:29.295Z,71.67
2019-02-19T07:41:55.148Z,71.73
2019-02-19T07:44:21.094Z,71.72
2019-02-19T07:46:47.069Z,71.69
2019-02-19T07:49:12.951Z,71.67
2019-02-19T07:51:39.032Z,71.62
2019-02-19T07:54:04.912Z,71.61
2019-02-19T07:56:30.771Z,71.53
2019-02-19T07:58:56.804Z,71.50
2019-02-19T08:01:22.673Z,71.55
2019-02-19T08:03:48.508Z,71.54
2019-02-19T08:06:14.778Z,71.53
2019-02-19T08:08:41.135Z,71.50
2019-02-19T08:11:07.101Z,71.43
2019-02-19T08:13:33.073Z,71.32
2019-02-19T08:15:58.955Z,71.47
2019-02-19T08:18:25.320Z,71.54
2019-02-19T08:20:51.363Z,71.64
2019-02-19T08:23:17.198Z,71.73
2019-02-19T08:25:43.189Z,71.67
2019-02-19T08:28:09.182Z,71.66
2019-02-19T08:30:35.151Z,71.70
2019-02-19T08:33:01.008Z,71.75
2019-02-19T08:35:26.974Z,71.76
2019-02-19T08:37:52.848Z,71.73
2019-02-19T08:40:18.703Z,71.63
2019-02-19T08:42:44.787Z,71.56
2019-02-19T08:45:10.769Z,71.47
2019-02-19T08:47:42.718Z,71.38
2019-02-19T08:50:05.608Z,71.53
2019-02-19T08:52:31.665Z,71.53
2019-02-19T08:54:57.532Z,71.51
2019-02-19T08:57:23.601Z,71.51
2019-02-19T08:59:49.482Z,71.50
2019-02-19T09:02:15.523Z,71.40
2019-02-19T09:04:41.545Z,71.20
2019-02-19T09:07:07.414Z,71.22
2019-02-19T09:09:33.291Z,71.26
2019-02-19T09:11:59.346Z,71.37
2019-02-19T09:14:25.189Z,71.42
2019-02-19T09:16:51.063Z,71.30
2019-02-19T09:19:17.029Z,71.43
2019-02-19T09:21:42.915Z,71.46
2019-02-19T09:24:09.783Z,71.55
2019-02-19T09:26:35.881Z,71.50
2019-02-19T09:29:01.757Z,71.39
2019-02-19T09:31:27.732Z,71.36
2019-02-19T09:33:53.783Z,71.27
2019-02-19T09:36:19.649Z,71.28
2019-02-19T09:38:45.634Z,71.27
2019-02-19T09:41:11.695Z,71.21
2019-02-19T09:43:37.536Z,71.18
2019-02-19T09:46:03.405Z,71.18
2019-02-19T09:48:29.439Z,71.19
2019-02-19T09:50:55.349Z,71.23
2019-02-19T09:53:21.275Z,71.29
2019-02-19T09:55:47.239Z,71.31
2019-02-19T09:58:13.112Z,71.33
2019-02-19T10:00:38.969Z,71.30
2019-02-19T10:03:04.944Z,71.27
2019-02-19T10:05:30.816Z,71.24
2019-02-19T10:07:56.698Z,71.23
2019-02-19T10:10:22.719Z,71.20
2019-02-19T10:12:48.711Z,71.15
2019-02-19T10:15:14.552Z,71.22
2019-02-19T10:17:40.691Z,71.18
2019-02-19T10:20:07.879Z,71.15
2019-02-19T10:22:33.853Z,71.14
2019-02-19T10:24:59.876Z,71.11
2019-02-19T10:27:25.721Z,71.02
2019-02-19T10:29:51.577Z,71.00
2019-02-19T10:32:17.547Z,71.03
2019-02-19T10:34:43.435Z,71.07
2019-02-19T10:37:09.403Z,70.90
2019-02-19T10:39:35.425Z,71.03
2019-02-19T10:42:01.312Z,71.06
2019-02-19T10:44:27.154Z,71.07
2019-02-19T10:46:53.130Z,71.07
2019-02-19T10:49:19.031Z,71.03
2019-02-19T10:51:44.903Z,70.96
2019-02-19T10:54:10.886Z,70.94
2019-02-19T10:56:36.792Z,70.95
2019-02-19T10:59:02.751Z,70.89
2019-02-19T11:01:28.701Z,70.82
2019-02-19T11:03:54.608Z,70.79
2019-02-19T11:06:20.467Z,70.85
2019-02-19T11:08:46.492Z,70.85
2019-02-19T11:11:12.392Z,70.91
2019-02-19T11:13:38.449Z,70.84
2019-02-19T11:16:04.603Z,70.84
2019-02-19T11:18:30.497Z,70.84
2019-02-19T11:20:56.322Z,70.80
2019-02-19T11:23:22.256Z,70.71
2019-02-19T11:25:48.252Z,70.95
2019-02-19T11:28:14.251Z,71.02
2019-02-19T11:30:40.241Z,71.09
2019-02-19T11:33:06.123Z,71.08
2019-02-19T11:35:31.979Z,71.08
2019-02-19T11:37:58.035Z,71.07
2019-02-19T11:40:23.939Z,71.09
2019-02-19T11:42:49.792Z,71.02
2019-02-19T11:45:16.575Z,70.95
2019-02-19T11:47:42.545Z,70.96
2019-02-19T11:50:09.540Z,70.87
2019-02-19T11:52:35.551Z,70.77
2019-02-19T11:55:01.525Z,70.94
2019-02-19T11:57:27.368Z,71.03
2019-02-19T11:59:53.424Z,71.13
2019-02-19T12:02:19.277Z,71.08
2019-02-19T12:04:45.132Z,71.00
2019-02-19T12:07:11.173Z,70.90
2019-02-19T12:09:37.067Z,70.86
2019-02-19T12:12:03.054Z,70.78
2019-02-19T12:14:28.982Z,70.71
2019-02-19T12:16:54.856Z,70.70
2019-02-19T12:19:20.757Z,70.68
2019-02-19T12:21:46.845Z,70.63
2019-02-19T12:24:12.710Z,70.57
2019-02-19T12:26:38.587Z,70.57
2019-02-19T12:29:04.579Z,70.53
2019-02-19T12:31:30.451Z,70.51
2019-02-19T12:33:56.307Z,70.48
2019-02-19T12:36:22.330Z,70.43
2019-02-19T12:38:48.230Z,70.53
2019-02-19T12:41:14.096Z,70.56
2019-02-19T12:43:40.103Z,70.60
2019-02-19T12:46:05.979Z,70.53
2019-02-19T12:48:31.833Z,70.52
2019-02-19T12:50:57.840Z,70.66
2019-02-19T12:53:23.720Z,70.88
2019-02-19T12:55:49.610Z,70.89
2019-02-19T12:58:15.611Z,70.88
2019-02-19T13:00:41.491Z,70.82
2019-02-19T13:03:07.459Z,70.97
2019-02-19T13:05:33.522Z,70.92
2019-02-19T13:07:59.358Z,70.91
2019-02-19T13:10:25.256Z,70.92
2019-02-19T13:12:51.311Z,70.98
2019-02-19T13:15:17.965Z,70.97
2019-02-19T13:17:43.838Z,71.24
2019-02-19T13:20:10.874Z,71.32
2019-02-19T13:22:36.852Z,71.39
2019-02-19T13:25:03.543Z,71.52
2019-02-19T13:27:29.577Z,71.43
2019-02-19T13:29:55.507Z,71.27
2019-02-19T13:32:21.380Z,71.40
2019-02-19T13:34:47.431Z,71.57
2019-02-19T13:37:13.282Z,71.60
2019-02-19T13:39:39.135Z,71.47
2019-02-19T13:42:05.090Z,71.42
2019-02-19T13:44:30.999Z,71.38
2019-02-19T13:46:56.969Z,71.43
2019-02-19T13:49:22.984Z,71.48
2019-02-19T13:51:48.865Z,71.36
2019-02-19T13:54:16.639Z,71.44
2019-02-19T13:56:42.603Z,71.45
2019-02-19T13:59:08.568Z,71.44
2019-02-19T14:01:34.534Z,71.42
2019-02-19T14:04:00.560Z,71.37
2019-02-19T14:06:26.432Z,71.20
2019-02-19T14:08:52.424Z,71.23
2019-02-19T14:11:18.541Z,71.21
2019-02-19T14:13:46.320Z,71.19
2019-02-19T14:16:16.702Z,71.21
2019-02-19T14:18:53.610Z,71.11
2019-02-19T14:21:21.452Z,71.17
2019-02-19T14:23:52.061Z,71.12
2019-02-19T14:26:25.939Z,71.20
2019-02-19T14:28:53.713Z,71.14
2019-02-19T14:31:27.631Z,71.39
2019-02-19T14:34:01.577Z,71.46
2019-02-19T14:36:47.462Z,71.54
2019-02-19T14:39:33.121Z,71.57
2019-02-19T14:42:00.989Z,71.52
2019-02-19T14:44:43.547Z,71.50
2019-02-19T14:47:27.732Z,71.39
2019-02-19T14:49:58.663Z,71.40
2019-02-19T14:52:29.389Z,71.31
2019-02-19T14:54:57.136Z,71.36
2019-02-19T14:57:33.612Z,71.29
2019-02-19T15:00:07.279Z,71.36
2019-02-19T15:02:41.041Z,71.33
2019-02-19T15:05:09.036Z,71.42
2019-02-19T15:07:42.625Z,71.56
2019-02-19T15:10:10.522Z,71.75
2019-02-19T15:12:50.409Z,71.72
2019-02-19T15:15:21.063Z,71.78
2019-02-19T15:17:51.601Z,71.71
2019-02-19T15:20:34.121Z,71.77
2019-02-19T15:23:07.761Z,71.72
2019-02-19T15:25:50.656Z,71.66
2019-02-19T15:28:18.521Z,71.71
2019-02-19T15:30:58.299Z,71.77
2019-02-19T15:33:37.934Z,71.75
2019-02-19T15:36:08.463Z,71.88
2019-02-19T15:38:36.239Z,71.77
2019-02-19T15:41:20.376Z,71.84
2019-02-19T15:43:50.765Z,71.75
2019-02-19T15:46:24.300Z,71.76
2019-02-19T15:49:00.819Z,71.81
2019-02-19T15:51:40.721Z,71.90
2019-02-19T15:54:11.106Z,72.04
2019-02-19T15:56:54.072Z,71.96
2019-02-19T15:59:21.843Z,71.89
2019-02-19T16:02:07.514Z,71.77
2019-02-19T16:04:41.183Z,71.76
2019-02-19T16:07:20.738Z,71.76
2019-02-19T16:09:57.112Z,71.80
2019-02-19T16:12:27.621Z,71.75
2019-02-19T16:15:01.365Z,71.70
2019-02-19T16:17:29.303Z,71.65
2019-02-19T16:19:57.420Z,71.61
2019-02-19T16:22:28.076Z,71.58
2019-02-19T16:25:02.069Z,71.62
2019-02-19T16:27:29.927Z,71.76
2019-02-19T16:29:57.673Z,71.79
2019-02-19T16:32:25.529Z,71.73
2019-02-19T16:35:11.045Z,71.75
2019-02-19T16:37:41.867Z,71.73
2019-02-19T16:40:15.445Z,71.67
2019-02-19T16:42:46.186Z,71.63
2019-02-19T16:45:30.465Z,71.60
2019-02-19T16:47:58.437Z,71.59
2019-02-19T16:50:55.342Z,71.63
2019-02-19T16:53:38.074Z,71.54
2019-02-19T16:56:11.927Z,71.68
2019-02-19T16:58:42.511Z,71.72
2019-02-19T17:01:25.345Z,71.89
2019-02-19T17:03:58.928Z,72.04
2019-02-19T17:06:43.127Z,72.03
2019-02-19T17:09:16.910Z,72.04
2019-02-19T17:11:47.283Z,71.98
2019-02-19T17:14:15.972Z,71.87
2019-02-19T17:16:43.998Z,71.82
2019-02-19T17:19:17.477Z,71.78
2019-02-19T17:21:47.949Z,71.82
2019-02-19T17:24:18.325Z,71.82
2019-02-19T17:26:46.078Z,71.75
2019-02-19T17:29:19.529Z,71.75
2019-02-19T17:31:47.300Z,71.72
2019-02-19T17:34:31.506Z,71.72
2019-02-19T17:37:15.597Z,71.75
2019-02-19T17:39:52.608Z,71.69
2019-02-19T17:42:35.412Z,71.76
2019-02-19T17:45:05.888Z,71.81
2019-02-19T17:47:39.419Z,71.78
2019-02-19T17:50:12.146Z,71.65
2019-02-19T17:52:54.936Z,71.69
2019-02-19T17:55:39.093Z,71.81
2019-02-19T17:58:06.968Z,72.03
2019-02-19T18:00:40.804Z,72.12
2019-02-19T18:03:24.894Z,72.17
2019-02-19T18:06:04.746Z,72.17
2019-02-19T18:08:32.614Z,71.98
2019-02-19T18:11:00.396Z,71.91
2019-02-19T18:13:46.409Z,71.92
2019-02-19T18:16:14.203Z,72.01
2019-02-19T18:18:50.703Z,72.08
2019-02-19T18:21:16.667Z,72.24
2019-02-19T18:23:42.512Z,72.27
2019-02-19T18:26:08.605Z,72.22
2019-02-19T18:28:34.443Z,72.20
2019-02-19T18:31:00.305Z,72.16
2019-02-19T18:33:26.376Z,72.14
2019-02-19T18:35:52.232Z,72.11
2019-02-19T18:38:18.136Z,72.00
2019-02-19T18:40:44.145Z,71.93
2019-02-19T18:43:09.977Z,72.02
2019-02-19T18:45:35.818Z,72.08
2019-02-19T18:48:01.821Z,72.25
2019-02-19T18:50:27.644Z,72.25
2019-02-19T18:52:53.561Z,72.11
2019-02-19T18:55:19.618Z,72.13
2019-02-19T18:57:45.484Z,72.14
2019-02-19T19:00:11.857Z,72.06
2019-02-19T19:02:37.790Z,72.07
2019-02-19T19:05:04.643Z,72.08
2019-02-19T19:07:30.496Z,72.02
2019-02-19T19:09:56.747Z,72.07
2019-02-19T19:12:22.726Z,71.98
2019-02-19T19:14:48.608Z,71.88
2019-02-19T19:17:14.647Z,71.96
2019-02-19T19:19:40.470Z,72.09
2019-02-19T19:22:06.464Z,72.11
2019-02-19T19:24:32.719Z,72.22
2019-02-19T19:26:58.917Z,72.20
2019-02-19T19:29:24.777Z,72.19
2019-02-19T19:31:50.747Z,72.13
2019-02-19T19:34:16.616Z,72.05
2019-02-19T19:36:42.597Z,71.98
2019-02-19T19:39:08.714Z,72.00
2019-02-19T19:41:34.583Z,71.95
2019-02-19T19:44:00.448Z,71.91
2019-02-19T19:46:26.453Z,71.96
2019-02-19T19:48:52.449Z,71.84
2019-02-19T19:51:18.421Z,71.98
2019-02-19T19:53:44.369Z,71.97
2019-02-19T19:56:10.232Z,71.88
2019-02-19T19:58:36.123Z,71.94
2019-02-19T20:01:02.230Z,72.03
2019-02-19T20:03:28.107Z,72.00
2019-02-19T20:05:53.965Z,71.88
2019-02-19T20:08:20.116Z,71.98
2019-02-19T20:10:46.206Z,72.12
2019-02-19T20:13:12.048Z,72.09
2019-02-19T20:15:38.027Z,72.14
2019-02-19T20:18:03.894Z,72.11
2019-02-19T20:20:29.875Z,72.06
2019-02-19T20:22:55.843Z,71.99
2019-02-19T20:25:21.708Z,71.90
2019-02-19T20:27:47.583Z,71.95
2019-02-19T20:30:14.298Z,71.99
2019-02-19T20:32:40.156Z,72.00
2019-02-19T20:35:07.310Z,72.05
2019-02-19T20:37:33.374Z,71.98
2019-02-19T20:39:59.232Z,71.95
2019-02-19T20:42:25.130Z,71.88
2019-02-19T20:44:51.060Z,71.88
2019-02-19T20:47:16.903Z,71.91
2019-02-19T20:49:42.817Z,71.86
2019-02-19T20:52:08.945Z,71.93
2019-02-19T20:54:34.796Z,71.79
2019-02-19T20:57:00.799Z,71.79
2019-02-19T20:59:26.821Z,72.05
2019-02-19T21:01:52.781Z,72.11
2019-02-19T21:04:18.667Z,72.08
2019-02-19T21:06:44.676Z,72.20
2019-02-19T21:09:10.539Z,72.22
2019-02-19T21:11:36.537Z,72.33
2019-02-19T21:14:02.497Z,72.28
2019-02-19T21:16:28.486Z,72.29
2019-02-19T21:18:54.399Z,72.29
2019-02-19T21:21:20.419Z,72.38
2019-02-19T21:23:46.260Z,72.30
2019-02-19T21:26:12.151Z,72.29
2019-02-19T21:28:38.108Z,72.27
2019-02-19T21:31:04.062Z,72.24
2019-02-19T21:33:30.029Z,72.20
2019-02-19T21:35:57.826Z,72.15
2019-02-19T21:38:23.870Z,72.25
2019-02-19T21:40:49.831Z,72.25
2019-02-19T21:43:16.014Z,72.18
2019-02-19T21:45:41.906Z,72.05
2019-02-19T21:48:07.755Z,72.12
2019-02-19T21:50:33.902Z,72.26
2019-02-19T21:52:59.913Z,72.28
2019-02-19T21:55:25.763Z,72.17
2019-02-19T21:57:51.732Z,72.22
2019-02-19T22:00:18.708Z,72.30
2019-02-19T22:02:44.593Z,72.26
2019-02-19T22:05:10.633Z,72.23
2019-02-19T22:07:36.546Z,72.22
2019-02-19T22:10:03.104Z,72.38
2019-02-19T22:12:29.359Z,72.41
2019-02-19T22:14:55.257Z,72.39
2019-02-19T22:17:21.098Z,72.31
2019-02-19T22:19:47.092Z,72.24
2019-02-19T22:22:13.296Z,72.21
2019-02-19T22:24:39.163Z,72.15
2019-02-19T22:27:05.199Z,72.12
2019-02-19T22:29:31.296Z,72.10
2019-02-19T22:31:57.151Z,72.06
2019-02-19T22:34:23.183Z,72.00
2019-02-19T22:36:49.057Z,71.96
2019-02-19T22:39:14.906Z,71.92
2019-02-19T22:41:40.987Z,71.88
2019-02-19T22:44:07.037Z,71.92
2019-02-19T22:46:32.896Z,71.85
2019-02-19T22:48:58.874Z,71.79
2019-02-19T22:51:24.824Z,71.73
2019-02-19T22:53:52.601Z,71.71
2019-02-19T22:56:23.362Z,71.71
2019-02-19T22:58:49.197Z,71.68
2019-02-19T23:01:32.199Z,71.67
2019-02-19T23:03:58.462Z,71.69
2019-02-19T23:06:24.428Z,71.73
2019-02-19T23:08:50.388Z,71.75
2019-02-19T23:11:16.345Z,71.73
2019-02-19T23:13:42.295Z,71.71
2019-02-19T23:16:08.317Z,71.70
2019-02-19T23:18:34.153Z,71.68
2019-02-19T23:21:00.020Z,71.68
2019-02-19T23:23:26.055Z,71.67
2019-02-19T23:25:51.936Z,71.63
2019-02-19T23:28:17.807Z,71.61
2019-02-19T23:30:43.801Z,71.64
2019-02-19T23:33:09.776Z,71.64
2019-02-19T23:35:37.647Z,71.65
2019-02-19T23:38:03.714Z,71.65
2019-02-19T23:40:29.606Z,71.64
2019-02-19T23:42:55.448Z,71.60
2019-02-19T23:45:21.695Z,71.59
2019-02-19T23:47:47.580Z,71.51
2019-02-19T23:50:13.451Z,71.52
2019-02-19T23:52:39.435Z,71.49
2019-02-19T23:55:06.037Z,71.49
2019-02-19T23:57:31.903Z,71.51
2019-02-19T23:59:58.026Z,71.56
